Time;durP1;ratioP1;P1;durP2;ratioP2;P2;SDS_P1;SDS_P2;PMS_P1;PMS_P2;Temp;Humidity;BMP_temperature;BMP_pressure;BME280_temperature;BME280_humidity;BME280_pressure;Samples;Min_cycle;Max_cycle;Signal;HPM_P1;HPM_P2
2022/12/07 00:01:51;;;;;;;10.68;9.07;;;7.20;85.80;;;;;;10862019;32;20440;-76
2022/12/07 00:07:53;;;;;;;12.13;9.45;;;7.30;85.80;;;;;;10848628;32;20050;-76
2022/12/07 00:14:02;;;;;;;8.52;6.10;;;7.10;85.70;;;;;;10848469;32;20015;-76
2022/12/07 00:20:05;;;;;;;;;;;6.90;85.60;;;;;;10866914;27;20066;-76
2022/12/07 00:26:09;;;;;;;10.18;9.10;;;6.90;86.10;;;;;;10861434;32;19927;-76
2022/12/07 00:32:11;;;;;;;13.82;11.25;;;6.80;85.80;;;;;;10861380;32;20019;-76
2022/12/07 00:38:14;;;;;;;9.50;6.93;;;6.80;85.90;;;;;;10861239;32;20023;-76
2022/12/07 00:44:40;;;;;;;12.60;9.88;;;6.70;85.70;;;;;;10860964;32;20024;-76
2022/12/07 00:50:43;;;;;;;16.40;13.15;;;6.80;86.20;;;;;;10847624;32;20016;-76
2022/12/07 00:56:44;;;;;;;15.70;10.98;;;7.20;86.20;;;;;;10860747;32;20353;-76
2022/12/07 01:02:46;;;;;;;11.77;10.57;;;7.40;85.90;;;;;;10858053;32;20028;-76
2022/12/07 01:08:49;;;;;;;11.48;9.25;;;7.50;85.60;;;;;;10866987;32;20097;-76
2022/12/07 01:14:51;;;;;;;11.00;8.07;;;7.30;85.60;;;;;;10853538;32;20374;-73
2022/12/07 01:21:05;;;;;;;14.07;10.10;;;7.50;85.90;;;;;;10853338;32;20390;-73
2022/12/07 01:27:07;;;;;;;12.15;8.95;;;7.80;85.40;;;;;;10866434;32;20028;-74
2022/12/07 01:33:08;;;;;;;11.52;9.25;;;7.80;85.10;;;;;;10866358;32;20350;-73
2022/12/07 01:39:11;;;;;;;11.68;8.95;;;7.50;84.90;;;;;;10866708;32;20019;-73
2022/12/07 01:45:36;;;;;;;11.15;9.30;;;7.40;85.50;;;;;;10851623;32;20046;-73
2022/12/07 01:51:41;;;;;;;8.82;6.62;;;7.50;85.50;;;;;;10865774;32;20345;-73
2022/12/07 01:57:51;;;;;;;12.75;8.15;;;7.40;85.10;;;;;;10852185;32;20050;-74
2022/12/07 02:03:53;;;;;;;10.40;7.25;;;7.20;85.20;;;;;;10865247;32;20046;-73
2022/12/07 02:09:55;;;;;;;11.82;6.60;;;6.90;85.30;;;;;;10863090;32;20028;-73
2022/12/07 02:16:15;;;;;;;11.88;7.75;;;6.70;85.40;;;;;;10861499;32;20385;-74
2022/12/07 02:22:36;;;;;;;11.95;8.38;;;6.60;85.80;;;;;;10864854;32;20055;-73
2022/12/07 02:28:56;;;;;;;9.93;6.55;;;6.50;85.60;;;;;;10864857;32;20019;-73
2022/12/07 02:35:27;;;;;;;10.20;8.15;;;6.40;85.90;;;;;;10864503;32;20036;-73
2022/12/07 02:41:48;;;;;;;8.88;7.75;;;6.50;85.90;;;;;;10864220;32;20333;-73
2022/12/07 02:47:56;;;;;;;9.68;6.95;;;6.50;86.00;;;;;;10864230;32;20336;-73
2022/12/07 02:53:58;;;;;;;9.50;8.45;;;6.50;86.00;;;;;;10862455;32;20023;-73
2022/12/07 03:00:07;;;;;;;10.48;7.62;;;6.80;86.00;;;;;;10863854;32;20393;-73
2022/12/07 03:06:38;;;;;;;8.70;6.00;;;7.00;85.60;;;;;;10861369;32;20051;-72
2022/12/07 03:12:48;;;;;;;8.75;6.50;;;6.80;85.10;;;;;;10863377;32;20031;-72
2022/12/07 03:18:58;;;;;;;11.00;8.40;;;6.40;85.30;;;;;;10863095;32;20023;-72
2022/12/07 03:25:06;;;;;;;9.57;7.55;;;6.40;85.80;;;;;;10862998;32;20023;-72
2022/12/07 03:31:18;;;;;;;10.38;6.53;;;6.80;85.50;;;;;;10858395;32;20051;-72
2022/12/07 03:37:31;;;;;;;10.32;7.03;;;7.10;85.10;;;;;;10862631;32;20401;-72
2022/12/07 03:43:34;;;;;;;8.77;6.10;;;7.30;84.20;;;;;;10862484;32;20019;-72
2022/12/07 03:49:45;;;;;;;10.68;7.70;;;6.90;84.10;;;;;;10862213;32;20031;-72
2022/12/07 03:55:49;;;;;;;11.82;7.82;;;6.80;84.60;;;;;;10862153;32;20016;-73
2022/12/07 04:01:56;;;;;;;12.45;8.52;;;6.60;84.40;;;;;;10861920;32;20031;-74
2022/12/07 04:08:00;;;;;;;10.02;6.55;;;7.00;84.70;;;;;;10858318;32;20366;-74
2022/12/07 04:14:20;;;;;;;8.07;6.10;;;7.30;83.70;;;;;;10861705;32;20031;-74
2022/12/07 04:20:23;;;;;;;16.17;7.65;;;7.10;83.40;;;;;;10861582;32;20023;-74
2022/12/07 04:26:25;;;;;;;8.55;6.45;;;6.80;83.90;;;;;;10858716;32;20027;-74
2022/12/07 04:32:27;;;;;;;6.90;4.82;;;7.00;83.80;;;;;;10861528;32;20019;-74
2022/12/07 04:38:30;;;;;;;11.02;7.97;;;6.60;83.90;;;;;;10863048;32;20059;-74
2022/12/07 04:44:32;;;;;;;12.15;9.18;;;6.60;84.60;;;;;;10866531;32;20054;-74
2022/12/07 04:50:38;;;;;;;10.25;6.68;;;6.70;84.30;;;;;;10867558;32;20054;-73
2022/12/07 04:56:40;;;;;;;9.75;7.03;;;6.60;84.00;;;;;;10867280;32;20051;-74
2022/12/07 05:02:41;;;;;;;10.05;7.28;;;6.70;84.60;;;;;;10866163;32;20057;-74
2022/12/07 05:08:43;;;;;;;7.70;5.62;;;7.00;83.70;;;;;;10867023;32;20051;-73
2022/12/07 05:14:45;;;;;;;8.05;5.40;;;6.70;83.50;;;;;;10864778;32;20031;-74
2022/12/07 05:20:49;;;;;;;7.95;5.43;;;6.60;83.90;;;;;;10866434;32;20024;-74
2022/12/07 05:26:50;;;;;;;9.02;6.03;;;6.50;84.00;;;;;;10866311;32;20054;-73
2022/12/07 05:32:57;;;;;;;6.87;5.12;;;6.30;84.40;;;;;;10866107;32;20341;-73
2022/12/07 05:39:00;;;;;;;9.98;6.62;;;6.20;84.50;;;;;;10866294;32;20081;-74
2022/12/07 05:45:02;;;;;;;9.32;6.55;;;6.10;84.20;;;;;;10852666;32;20028;-73
2022/12/07 05:51:07;;;;;;;9.57;7.70;;;5.90;84.60;;;;;;10865297;32;20027;-74
2022/12/07 05:57:11;;;;;;;8.98;6.65;;;5.90;84.90;;;;;;10838243;32;20043;-77
2022/12/07 06:03:13;;;;;;;10.25;8.68;;;6.20;84.80;;;;;;10862072;32;20420;-77
2022/12/07 06:09:18;;;;;;;10.00;7.82;;;6.10;84.60;;;;;;10864395;32;20050;-77
2022/12/07 06:15:20;;;;;;;11.50;7.72;;;6.40;84.80;;;;;;10850882;32;20027;-77
2022/12/07 06:21:22;;;;;;;9.73;6.35;;;6.80;84.10;;;;;;10856622;32;20090;-77
2022/12/07 06:27:24;;;;;;;9.55;6.53;;;7.10;83.40;;;;;;10825217;33;20063;-77
2022/12/07 06:33:26;;;;;;;13.38;10.30;;;7.40;83.10;;;;;;10827611;33;20042;-77
2022/12/07 06:39:30;;;;;;;12.10;9.13;;;7.70;82.80;;;;;;10823617;33;20035;-77
2022/12/07 06:45:33;;;;;;;15.50;10.63;;;7.90;83.00;;;;;;10826191;33;20054;-77
2022/12/07 06:51:36;;;;;;;9.90;7.32;;;8.10;83.00;;;;;;10813848;33;20032;-77
2022/12/07 06:57:38;;;;;;;11.32;7.55;;;8.20;83.00;;;;;;10824221;33;20299;-77
2022/12/07 07:03:40;;;;;;;11.63;8.88;;;8.20;82.60;;;;;;10829599;32;20035;-77
2022/12/07 07:09:42;;;;;;;9.48;7.60;;;8.10;82.10;;;;;;10835645;32;20051;-77
2022/12/07 07:15:44;;;;;;;14.07;10.68;;;8.20;82.40;;;;;;10827321;32;20032;-77
2022/12/07 07:21:46;;;;;;;10.75;7.75;;;8.40;82.70;;;;;;10827478;32;20093;-78
2022/12/07 07:27:51;;;;;;;9.40;7.10;;;8.40;81.80;;;;;;10811067;33;20031;-77
2022/12/07 07:33:54;;;;;;;16.58;11.18;;;7.70;81.80;;;;;;10825718;33;20020;-74
2022/12/07 07:39:56;;;;;;;16.10;12.50;;;7.30;83.20;;;;;;10821626;33;20418;-74
2022/12/07 07:45:58;;;;;;;13.60;10.15;;;7.70;82.80;;;;;;10825371;33;20036;-74
2022/12/07 07:52:00;;;;;;;12.90;9.55;;;7.90;82.00;;;;;;10823548;33;20391;-74
2022/12/07 07:58:02;;;;;;;10.60;7.97;;;7.70;81.90;;;;;;10835812;32;20333;-74
2022/12/07 08:04:04;;;;;;;9.30;7.10;;;7.10;82.80;;;;;;10827590;32;20079;-74
2022/12/07 08:10:09;;;;;;;10.80;8.15;;;7.00;83.60;;;;;;10858353;32;20058;-74
2022/12/07 08:16:11;;;;;;;11.70;9.90;;;6.90;83.30;;;;;;10861402;32;20337;-74
2022/12/07 08:22:13;;;;;;;14.52;10.35;;;6.60;83.30;;;;;;10446563;27;12028649;-73
2022/12/07 08:28:15;;;;;;;14.00;9.20;;;6.50;84.20;;;;;;10698381;33;20059;-73
2022/12/07 08:34:17;;;;;;;17.98;13.50;;;6.70;84.60;;;;;;10708339;33;20063;-73
2022/12/07 08:40:28;;;;;;;16.08;11.60;;;7.00;84.80;;;;;;10708836;33;20056;-74
2022/12/07 08:46:37;;;;;;;11.60;9.07;;;7.20;84.00;;;;;;10712790;33;20075;-74
2022/12/07 08:52:40;;;;;;;;;;;6.90;83.90;;;;;;10823912;33;20412;-74
2022/12/07 08:59:12;;;;;;;15.93;11.98;;;7.20;84.60;;;;;;10823691;33;19926;-74
2022/12/07 09:05:15;;;;;;;15.50;11.68;;;7.10;84.30;;;;;;10821609;33;20028;-74
2022/12/07 09:11:41;;;;;;;16.02;10.40;;;6.80;84.60;;;;;;10823129;33;20007;-74
2022/12/07 09:17:43;;;;;;;12.88;10.65;;;7.10;85.00;;;;;;10823003;33;20039;-74
2022/12/07 09:23:45;;;;;;;15.07;11.00;;;7.00;85.00;;;;;;10801329;33;20033;-73
2022/12/07 09:30:00;;;;;;;16.55;14.25;;;7.10;85.20;;;;;;10788995;33;20051;-73
2022/12/07 09:36:04;;;;;;;18.70;10.57;;;7.20;85.20;;;;;;10753604;33;20013;-73
2022/12/07 09:42:07;;;;;;;13.20;9.38;;;7.50;86.20;;;;;;10755601;33;20410;-73
2022/12/07 09:48:21;;;;;;;13.07;8.93;;;7.90;85.40;;;;;;10752580;33;20017;-73
2022/12/07 09:54:23;;;;;;;12.73;7.32;;;7.80;85.40;;;;;;10742236;33;20017;-73
2022/12/07 10:00:28;;;;;;;13.27;9.48;;;7.80;86.10;;;;;;10755152;33;20016;-73
2022/12/07 10:06:30;;;;;;;12.70;9.07;;;8.40;86.60;;;;;;10752178;33;20056;-73
2022/12/07 10:12:54;;;;;;;11.85;9.90;;;8.70;86.10;;;;;;10750761;33;20495;-73
2022/12/07 10:18:56;;;;;;;11.12;8.13;;;8.70;86.60;;;;;;10750478;33;20425;-73
2022/12/07 10:25:09;;;;;;;8.57;5.78;;;8.60;86.00;;;;;;10753094;33;20025;-73
2022/12/07 10:31:21;;;;;;;8.25;6.25;;;8.80;86.70;;;;;;10752167;33;20024;-74
2022/12/07 10:37:27;;;;;;;12.10;6.18;;;9.00;86.40;;;;;;10750876;33;20020;-73
2022/12/07 10:43:29;;;;;;;7.53;4.78;;;9.00;86.70;;;;;;10750345;33;20040;-74
2022/12/07 10:49:51;;;;;;;11.60;5.53;;;8.90;87.00;;;;;;10749930;33;20024;-74
2022/12/07 10:56:07;;;;;;;11.93;5.80;;;9.40;88.00;;;;;;10737333;33;20016;-74
2022/12/07 11:02:17;;;;;;;9.70;6.55;;;9.80;87.10;;;;;;10753371;33;20024;-74
2022/12/07 11:08:51;;;;;;;7.28;4.82;;;9.80;87.00;;;;;;10750254;33;20091;-75
2022/12/07 11:15:18;;;;;;;7.05;4.43;;;10.10;87.60;;;;;;10749952;33;20017;-74
2022/12/07 11:21:29;;;;;;;8.73;4.35;;;10.80;87.20;;;;;;10736921;33;20057;-74
2022/12/07 11:27:45;;;;;;;7.12;4.65;;;11.20;86.70;;;;;;10749660;33;20024;-74
2022/12/07 11:34:06;;;;;;;6.18;4.10;;;11.30;85.80;;;;;;10750076;33;20047;-75
2022/12/07 11:40:22;;;;;;;7.55;3.83;;;11.10;86.70;;;;;;10749018;33;20059;-74
2022/12/07 11:46:51;;;;;;;4.57;2.95;;;11.30;86.60;;;;;;10750660;33;20029;-74
2022/12/07 11:53:13;;;;;;;5.15;2.72;;;11.50;86.40;;;;;;10752017;33;20039;-74
2022/12/07 11:59:36;;;;;;;4.82;3.08;;;11.60;86.40;;;;;;10748954;33;20029;-74
2022/12/07 12:05:39;;;;;;;2.65;2.10;;;11.50;86.40;;;;;;10766239;33;20116;-74
2022/12/07 12:11:56;;;;;;;4.37;2.15;;;11.50;86.40;;;;;;10787645;33;20181;-74
2022/12/07 12:18:16;;;;;;;2.83;1.87;;;11.50;86.50;;;;;;10785012;33;20028;-74
2022/12/07 12:24:25;;;;;;;4.55;2.83;;;11.30;87.00;;;;;;10787254;33;20055;-75
2022/12/07 12:30:30;;;;;;;4.00;2.90;;;11.50;86.80;;;;;;10787316;33;20357;-74
2022/12/07 12:36:42;;;;;;;5.18;2.83;;;11.50;87.20;;;;;;10786663;33;20017;-74
2022/12/07 12:42:48;;;;;;;3.80;2.25;;;11.50;87.30;;;;;;10786522;33;20028;-74
2022/12/07 12:48:50;;;;;;;5.47;3.08;;;11.60;87.40;;;;;;10785015;33;20079;-74
2022/12/07 12:55:23;;;;;;;6.37;3.30;;;11.70;87.50;;;;;;10787237;33;20330;-75
2022/12/07 13:01:31;;;;;;;5.35;3.25;;;11.80;87.20;;;;;;10790938;33;20350;-73
2022/12/07 13:07:51;;;;;;;5.75;3.45;;;11.90;86.90;;;;;;10793106;33;20055;-73
2022/12/07 13:14:33;;;;;;;5.55;2.87;;;11.90;87.00;;;;;;10776066;32;20406;-74
2022/12/07 13:20:56;;;;;;;8.25;3.40;;;12.10;87.30;;;;;;10792759;33;20303;-73
2022/12/07 13:26:59;;;;;;;4.72;3.30;;;12.20;86.90;;;;;;10792292;33;20063;-73
2022/12/07 13:33:03;;;;;;;6.50;4.85;;;12.20;86.90;;;;;;10791153;33;20463;-74
2022/12/07 13:39:15;;;;;;;5.20;3.30;;;12.30;87.10;;;;;;10788865;33;20047;-73
2022/12/07 13:51:53;;;;;;;7.07;3.87;;;12.30;87.50;;;;;;10751037;33;20043;-73
2022/12/07 13:57:56;;;;;;;6.85;4.80;;;12.20;88.20;;;;;;10754064;32;20066;-74
2022/12/07 14:04:44;;;;;;;7.78;4.62;;;12.10;88.30;;;;;;10775403;33;20406;-73
2022/12/07 14:10:49;;;;;;;12.68;3.28;;;12.20;88.50;;;;;;10787838;33;20386;-73
2022/12/07 14:17:18;;;;;;;6.57;3.65;;;12.80;87.80;;;;;;10787282;33;20067;-73
2022/12/07 14:23:26;;;;;;;6.53;3.25;;;13.30;86.20;;;;;;10791074;33;20036;-73
2022/12/07 14:29:33;;;;;;;5.57;2.43;;;14.00;84.80;;;;;;10789112;33;20047;-73
2022/12/07 14:35:40;;;;;;;5.43;3.20;;;13.90;85.00;;;;;;10787534;33;20016;-74
2022/12/07 14:41:51;;;;;;;4.10;2.45;;;13.50;85.80;;;;;;10790446;33;20535;-74
2022/12/07 14:47:53;;;;;;;4.75;3.50;;;12.90;87.10;;;;;;10790090;33;20028;-74
2022/12/07 14:53:56;;;;;;;3.90;2.67;;;12.50;88.10;;;;;;10785780;33;20032;-73
2022/12/07 14:59:58;;;;;;;7.22;3.95;;;12.20;88.70;;;;;;10789825;33;20390;-73
2022/12/07 15:06:01;;;;;;;6.45;4.00;;;12.00;89.00;;;;;;10772726;32;20068;-74
2022/12/07 15:12:03;;;;;;;7.87;4.37;;;11.90;89.30;;;;;;10771936;33;20025;-74
2022/12/07 15:18:06;;;;;;;5.50;3.58;;;11.70;89.50;;;;;;10764056;33;20414;-74
2022/12/07 15:24:10;;;;;;;5.85;3.70;;;11.50;89.90;;;;;;10752865;33;20024;-73
2022/12/07 15:30:12;;;;;;;9.40;6.20;;;11.30;90.30;;;;;;10750135;33;20432;-73
2022/12/07 15:36:26;;;;;;;5.55;3.87;;;11.20;90.60;;;;;;10752080;33;20039;-74
2022/12/07 15:42:28;;;;;;;8.00;4.87;;;11.10;90.80;;;;;;10748928;33;20055;-74
2022/12/07 15:48:30;;;;;;;8.75;4.87;;;10.90;90.90;;;;;;10735363;33;20024;-74
2022/12/07 15:54:32;;;;;;;7.07;4.60;;;10.80;91.10;;;;;;10750369;33;20021;-74
2022/12/07 16:00:37;;;;;;;8.43;5.12;;;10.70;91.20;;;;;;10752075;33;20021;-75
2022/12/07 16:06:40;;;;;;;9.85;5.18;;;10.60;91.40;;;;;;10772355;33;20040;-74
2022/12/07 16:12:42;;;;;;;11.43;5.47;;;10.60;91.50;;;;;;10747775;33;20039;-74
2022/12/07 16:18:45;;;;;;;6.30;4.07;;;10.50;91.70;;;;;;10751262;33;20327;-73
2022/12/07 16:24:47;;;;;;;10.65;6.75;;;10.20;92.00;;;;;;10815491;27;20040;-74
2022/12/07 16:31:00;;;;;;;10.02;7.55;;;10.20;92.20;;;;;;10823817;32;20055;-75
2022/12/07 16:37:02;;;;;;;16.85;10.90;;;10.20;92.10;;;;;;10824013;33;20043;-75
2022/12/07 16:43:05;;;;;;;11.38;9.32;;;10.20;92.10;;;;;;10823914;33;20020;-75
2022/12/07 16:49:19;;;;;;;14.77;11.00;;;10.00;92.20;;;;;;10823947;33;20028;-75
2022/12/07 16:55:21;;;;;;;13.83;11.43;;;10.00;92.10;;;;;;10823918;33;20086;-75
2022/12/07 17:01:34;;;;;;;14.93;11.88;;;10.00;91.90;;;;;;10823722;33;20028;-75
2022/12/07 17:07:36;;;;;;;15.00;11.65;;;10.00;91.80;;;;;;10821640;33;20032;-75
2022/12/07 17:19:59;;;;;;;20.30;15.00;;;9.70;91.70;;;;;;10819848;32;20020;-74
2022/12/07 17:26:10;;;;;;;16.95;13.00;;;9.60;91.70;;;;;;10819073;33;20090;-73
2022/12/07 17:32:12;;;;;;;15.10;13.50;;;9.50;91.70;;;;;;10820335;33;20020;-73
2022/12/07 17:38:14;;;;;;;18.48;14.70;;;9.50;91.60;;;;;;10807752;33;20023;-73
2022/12/07 17:44:18;;;;;;;14.25;11.80;;;9.40;91.40;;;;;;10822885;32;20047;-73
2022/12/07 17:53:09;;;;;;;12.00;9.10;;;9.30;91.40;;;;;;10828715;33;20386;-73
2022/12/07 17:56:42;;;;;;;16.35;12.18;;;9.20;91.30;;;;;;10827746;33;20353;-73
2022/12/07 18:02:45;;;;;;;20.27;17.35;;;8.90;91.40;;;;;;10797016;33;20024;-75
2022/12/07 18:08:48;;;;;;;15.73;13.07;;;9.10;91.40;;;;;;10817665;33;20062;-76
2022/12/07 18:14:52;;;;;;;15.25;11.73;;;9.10;91.00;;;;;;10818246;33;20028;-76
2022/12/07 18:20:54;;;;;;;18.73;13.38;;;9.20;90.70;;;;;;10824431;33;20046;-75
2022/12/07 18:26:57;;;;;;;17.35;15.05;;;9.30;90.40;;;;;;10826677;33;20023;-76
2022/12/07 18:33:00;;;;;;;17.77;13.25;;;9.40;90.00;;;;;;10825990;33;20024;-75
2022/12/07 18:39:06;;;;;;;23.58;20.23;;;9.50;89.80;;;;;;10825398;33;20043;-76
2022/12/07 18:45:09;;;;;;;23.25;16.83;;;9.60;89.60;;;;;;10823715;33;20028;-76
2022/12/07 18:51:13;;;;;;;24.23;18.02;;;9.70;89.30;;;;;;10823789;32;20089;-75
2022/12/07 18:57:15;;;;;;;33.08;24.33;;;9.80;89.10;;;;;;10825782;32;20023;-75
2022/12/07 19:03:17;;;;;;;24.10;18.85;;;9.80;88.80;;;;;;10825061;33;20054;-76
2022/12/07 19:09:21;;;;;;;26.65;18.90;;;9.80;88.50;;;;;;10824394;33;20040;-76
2022/12/07 19:15:23;;;;;;;23.62;18.52;;;9.80;88.30;;;;;;10807851;33;20103;-76
2022/12/07 19:21:26;;;;;;;20.75;15.85;;;9.70;88.00;;;;;;10788769;33;20028;-76
2022/12/07 19:27:38;;;;;;;22.50;16.95;;;9.70;87.80;;;;;;10788070;33;20032;-76
2022/12/07 19:33:40;;;;;;;20.55;17.10;;;9.70;87.60;;;;;;10774092;33;20066;-75
2022/12/07 19:39:43;;;;;;;17.55;13.25;;;9.60;87.30;;;;;;10786329;33;20050;-76
2022/12/07 19:45:45;;;;;;;23.27;18.27;;;9.40;87.20;;;;;;10785384;33;20036;-75
2022/12/07 19:51:50;;;;;;;22.40;18.70;;;9.40;87.20;;;;;;10788163;33;20043;-75
2022/12/07 19:57:52;;;;;;;22.90;16.05;;;9.50;87.00;;;;;;10788018;33;20029;-75
2022/12/07 20:03:55;;;;;;;29.15;22.77;;;9.50;86.70;;;;;;10773401;33;20050;-76
2022/12/07 20:09:57;;;;;;;22.45;18.08;;;9.30;86.40;;;;;;10787136;33;20025;-76
2022/12/07 20:16:03;;;;;;;20.98;17.85;;;9.30;86.70;;;;;;10784864;33;20017;-76
2022/12/07 20:22:05;;;;;;;23.23;16.02;;;9.20;86.40;;;;;;10784123;33;20020;-76
2022/12/07 20:28:08;;;;;;;21.33;16.42;;;9.20;86.20;;;;;;10773449;33;20038;-76
2022/12/07 20:34:10;;;;;;;20.20;15.50;;;9.00;86.30;;;;;;10786043;33;20377;-74
2022/12/07 20:40:12;;;;;;;20.95;16.27;;;9.00;86.10;;;;;;10785195;33;20025;-74
2022/12/07 20:46:14;;;;;;;19.73;15.50;;;8.90;85.80;;;;;;10771344;33;20354;-74
2022/12/07 20:52:19;;;;;;;18.42;14.95;;;8.90;85.60;;;;;;10786861;33;20024;-74
2022/12/07 20:58:21;;;;;;;19.08;15.25;;;8.80;85.40;;;;;;10786339;33;20064;-74
2022/12/07 21:04:23;;;;;;;17.20;13.82;;;8.70;85.30;;;;;;10774094;33;20059;-74
2022/12/07 21:10:25;;;;;;;38.17;17.12;;;8.60;85.40;;;;;;10803811;33;20028;-74
2022/12/07 21:16:30;;;;;;;22.08;17.55;;;8.60;85.20;;;;;;10823479;33;20016;-74
2022/12/07 21:22:54;;;;;;;22.42;17.25;;;8.50;85.10;;;;;;10822827;33;20055;-74
2022/12/07 21:28:57;;;;;;;20.35;16.70;;;8.50;84.90;;;;;;10828390;33;20054;-74
2022/12/07 21:34:59;;;;;;;22.55;18.80;;;8.30;85.20;;;;;;10829551;33;20046;-74
2022/12/07 21:41:25;;;;;;;20.65;16.17;;;8.30;85.30;;;;;;10826805;33;20082;-73
2022/12/07 21:47:27;;;;;;;24.25;18.67;;;8.30;85.10;;;;;;10826346;33;20389;-73
2022/12/07 21:53:29;;;;;;;20.45;16.58;;;8.30;85.00;;;;;;10828480;33;20012;-74
2022/12/07 21:59:31;;;;;;;20.58;16.17;;;8.20;84.90;;;;;;10825525;33;20055;-74
2022/12/07 22:05:35;;;;;;;19.73;14.20;;;8.20;84.70;;;;;;10815159;33;20325;-74
2022/12/07 22:11:38;;;;;;;21.62;15.65;;;8.20;84.60;;;;;;10826927;33;20413;-75
2022/12/07 22:17:39;;;;;;;21.80;18.02;;;8.20;84.70;;;;;;10814949;33;20486;-74
2022/12/07 22:23:42;;;;;;;21.45;16.00;;;8.20;84.50;;;;;;10825274;32;20106;-74
2022/12/07 22:29:44;;;;;;;24.80;18.40;;;8.10;84.40;;;;;;10824467;33;20042;-73
2022/12/07 22:35:52;;;;;;;23.25;17.02;;;8.00;84.30;;;;;;10810883;33;20028;-75
2022/12/07 22:41:59;;;;;;;22.37;16.98;;;7.90;84.20;;;;;;10826892;33;20046;-75
2022/12/07 22:48:01;;;;;;;20.48;15.57;;;8.00;84.20;;;;;;10823140;33;20067;-75
2022/12/07 22:54:06;;;;;;;23.08;18.60;;;8.00;84.10;;;;;;10827270;32;20070;-76
2022/12/07 23:00:08;;;;;;;22.52;18.50;;;8.00;83.90;;;;;;10824796;32;20028;-76
2022/12/07 23:06:19;;;;;;;18.17;14.32;;;8.00;83.90;;;;;;10825384;33;20059;-76
2022/12/07 23:19:03;;;;;;;17.85;15.05;;;7.90;83.80;;;;;;10826469;33;20055;-75
2022/12/07 23:25:05;;;;;;;17.42;13.20;;;7.80;84.00;;;;;;10811049;33;20024;-75
2022/12/07 23:31:14;;;;;;;15.98;12.77;;;7.90;84.10;;;;;;10826170;33;20345;-75
2022/12/07 23:37:16;;;;;;;;;;;7.90;84.10;;;;;;10813118;33;20027;-75
2022/12/07 23:43:18;;;;;;;14.87;10.35;;;7.80;84.00;;;;;;10824978;32;19927;-75
2022/12/07 23:49:20;;;;;;;15.02;11.20;;;7.80;84.10;;;;;;10821507;33;20027;-75
2022/12/07 23:55:23;;;;;;;13.15;9.70;;;7.80;84.10;;;;;;10825494;32;20032;-75
